sensor_id;sensor_type;location;lat;lon;timestamp;pressure;altitude;pressure_sealevel;temperature;humidity
9899;BME280;4988;49.238;6.698;2023-06-22T00:01:58;99180.94;;;22.03;100.00
9899;BME280;4988;49.238;6.698;2023-06-22T00:04:24;99207.31;;;22.10;100.00
9899;BME280;4988;49.238;6.698;2023-06-22T00:06:49;99215.72;;;22.07;100.00
9899;BME280;4988;49.238;6.698;2023-06-22T00:09:14;99189.47;;;22.17;100.00
9899;BME280;4988;49.238;6.698;2023-06-22T00:11:40;99173.22;;;22.17;100.00
9899;BME280;4988;49.238;6.698;2023-06-22T00:14:05;99162.06;;;22.21;100.00
9899;BME280;4988;49.238;6.698;2023-06-22T00:16:33;99157.78;;;22.18;100.00
9899;BME280;4988;49.238;6.698;2023-06-22T00:18:59;99149.22;;;22.23;100.00
9899;BME280;4988;49.238;6.698;2023-06-22T00:21:29;99149.50;;;22.20;100.00
9899;BME280;4988;49.238;6.698;2023-06-22T00:23:54;99144.66;;;22.13;100.00
9899;BME280;4988;49.238;6.698;2023-06-22T00:26:20;99137.25;;;22.15;100.00
9899;BME280;4988;49.238;6.698;2023-06-22T00:28:46;99136.84;;;22.10;100.00
9899;BME280;4988;49.238;6.698;2023-06-22T00:31:12;99134.53;;;22.06;100.00
9899;BME280;4988;49.238;6.698;2023-06-22T00:33:37;99137.09;;;22.17;100.00
9899;BME280;4988;49.238;6.698;2023-06-22T00:36:03;99131.53;;;22.19;100.00
9899;BME280;4988;49.238;6.698;2023-06-22T00:38:28;99131.81;;;22.15;100.00
9899;BME280;4988;49.238;6.698;2023-06-22T00:40:54;99154.50;;;22.14;100.00
9899;BME280;4988;49.238;6.698;2023-06-22T00:43:19;99154.38;;;22.06;100.00
9899;BME280;4988;49.238;6.698;2023-06-22T00:45:45;99162.09;;;22.01;100.00
9899;BME280;4988;49.238;6.698;2023-06-22T00:48:11;99176.63;;;22.00;100.00
9899;BME280;4988;49.238;6.698;2023-06-22T00:50:37;99191.91;;;22.01;100.00
9899;BME280;4988;49.238;6.698;2023-06-22T00:53:05;99201.19;;;21.89;100.00
9899;BME280;4988;49.238;6.698;2023-06-22T00:55:35;99206.16;;;21.74;100.00
9899;BME280;4988;49.238;6.698;2023-06-22T00:58:08;99217.53;;;21.58;100.00
9899;BME280;4988;49.238;6.698;2023-06-22T01:00:36;99227.31;;;21.39;100.00
9899;BME280;4988;49.238;6.698;2023-06-22T01:03:02;99232.66;;;21.19;100.00
9899;BME280;4988;49.238;6.698;2023-06-22T01:05:28;99226.09;;;21.22;100.00
9899;BME280;4988;49.238;6.698;2023-06-22T01:08:14;99211.75;;;21.31;100.00
9899;BME280;4988;49.238;6.698;2023-06-22T01:10:49;99198.81;;;21.35;100.00
9899;BME280;4988;49.238;6.698;2023-06-22T01:13:30;99197.94;;;21.44;100.00
9899;BME280;4988;49.238;6.698;2023-06-22T01:16:05;99198.94;;;21.43;100.00
9899;BME280;4988;49.238;6.698;2023-06-22T01:18:34;99194.00;;;21.48;100.00
9899;BME280;4988;49.238;6.698;2023-06-22T01:21:02;99179.72;;;21.46;100.00
9899;BME280;4988;49.238;6.698;2023-06-22T01:29:16;99147.09;;;21.58;100.00
9899;BME280;4988;49.238;6.698;2023-06-22T01:31:44;99139.56;;;21.61;100.00
9899;BME280;4988;49.238;6.698;2023-06-22T01:34:10;99136.28;;;21.67;100.00
9899;BME280;4988;49.238;6.698;2023-06-22T01:36:37;99134.16;;;21.71;100.00
9899;BME280;4988;49.238;6.698;2023-06-22T01:39:05;99124.44;;;21.78;100.00
9899;BME280;4988;49.238;6.698;2023-06-22T01:41:36;99117.03;;;21.80;100.00
9899;BME280;4988;49.238;6.698;2023-06-22T01:44:05;99107.03;;;21.71;100.00
9899;BME280;4988;49.238;6.698;2023-06-22T01:46:32;99103.91;;;21.66;100.00
9899;BME280;4988;49.238;6.698;2023-06-22T01:48:57;99103.34;;;21.62;100.00
9899;BME280;4988;49.238;6.698;2023-06-22T01:51:23;99107.19;;;21.60;100.00
9899;BME280;4988;49.238;6.698;2023-06-22T01:53:49;99100.78;;;21.61;100.00
9899;BME280;4988;49.238;6.698;2023-06-22T01:56:17;99098.19;;;21.69;100.00
9899;BME280;4988;49.238;6.698;2023-06-22T01:59:32;99095.50;;;21.69;100.00
9899;BME280;4988;49.238;6.698;2023-06-22T02:01:37;99088.66;;;21.65;100.00
9899;BME280;4988;49.238;6.698;2023-06-22T02:04:12;99077.81;;;21.65;100.00
9899;BME280;4988;49.238;6.698;2023-06-22T02:06:42;99072.56;;;21.63;100.00
9899;BME280;4988;49.238;6.698;2023-06-22T02:09:12;99082.25;;;21.66;100.00
9899;BME280;4988;49.238;6.698;2023-06-22T02:11:41;99073.13;;;21.67;100.00
9899;BME280;4988;49.238;6.698;2023-06-22T02:14:08;99066.25;;;21.63;100.00
9899;BME280;4988;49.238;6.698;2023-06-22T02:16:33;99068.97;;;21.63;100.00
9899;BME280;4988;49.238;6.698;2023-06-22T02:19:01;99064.53;;;21.62;100.00
9899;BME280;4988;49.238;6.698;2023-06-22T02:21:29;99062.28;;;21.67;100.00
9899;BME280;4988;49.238;6.698;2023-06-22T02:23:54;99062.97;;;21.69;100.00
9899;BME280;4988;49.238;6.698;2023-06-22T02:26:20;99056.41;;;21.72;100.00
9899;BME280;4988;49.238;6.698;2023-06-22T02:28:45;99056.56;;;21.70;100.00
9899;BME280;4988;49.238;6.698;2023-06-22T02:31:11;99053.16;;;21.58;100.00
9899;BME280;4988;49.238;6.698;2023-06-22T02:36:01;99050.47;;;21.58;100.00
9899;BME280;4988;49.238;6.698;2023-06-22T02:38:31;99041.72;;;21.55;100.00
9899;BME280;4988;49.238;6.698;2023-06-22T02:40:59;99050.59;;;21.57;100.00
9899;BME280;4988;49.238;6.698;2023-06-22T02:43:25;99049.97;;;21.53;100.00
9899;BME280;4988;49.238;6.698;2023-06-22T02:45:51;99041.28;;;21.49;100.00
9899;BME280;4988;49.238;6.698;2023-06-22T02:48:16;99034.88;;;21.50;100.00
9899;BME280;4988;49.238;6.698;2023-06-22T02:50:41;99037.72;;;21.49;100.00
9899;BME280;4988;49.238;6.698;2023-06-22T02:53:07;99051.53;;;21.46;100.00
9899;BME280;4988;49.238;6.698;2023-06-22T02:55:32;99045.84;;;21.39;100.00
9899;BME280;4988;49.238;6.698;2023-06-22T02:57:57;99038.88;;;21.36;100.00
9899;BME280;4988;49.238;6.698;2023-06-22T03:00:24;99040.03;;;21.44;100.00
9899;BME280;4988;49.238;6.698;2023-06-22T03:02:55;99040.75;;;21.36;100.00
9899;BME280;4988;49.238;6.698;2023-06-22T03:05:21;99037.88;;;21.37;100.00
9899;BME280;4988;49.238;6.698;2023-06-22T03:07:46;99040.28;;;21.31;100.00
9899;BME280;4988;49.238;6.698;2023-06-22T03:10:13;99040.84;;;21.25;100.00
9899;BME280;4988;49.238;6.698;2023-06-22T03:12:38;99028.47;;;21.22;100.00
9899;BME280;4988;49.238;6.698;2023-06-22T03:15:06;99036.59;;;21.22;100.00
9899;BME280;4988;49.238;6.698;2023-06-22T03:17:32;99040.28;;;21.21;100.00
9899;BME280;4988;49.238;6.698;2023-06-22T03:19:57;99036.88;;;21.19;100.00
9899;BME280;4988;49.238;6.698;2023-06-22T03:22:22;99032.88;;;21.13;100.00
9899;BME280;4988;49.238;6.698;2023-06-22T03:24:48;99034.59;;;21.14;100.00
9899;BME280;4988;49.238;6.698;2023-06-22T03:27:13;99030.59;;;21.09;100.00
9899;BME280;4988;49.238;6.698;2023-06-22T03:29:38;99026.03;;;20.99;100.00
9899;BME280;4988;49.238;6.698;2023-06-22T03:32:04;99030.72;;;20.97;100.00
9899;BME280;4988;49.238;6.698;2023-06-22T03:34:31;99029.59;;;21.00;100.00
9899;BME280;4988;49.238;6.698;2023-06-22T03:36:58;99021.44;;;20.90;100.00
9899;BME280;4988;49.238;6.698;2023-06-22T03:39:24;99020.59;;;20.89;100.00
9899;BME280;4988;49.238;6.698;2023-06-22T03:41:49;99028.00;;;20.87;100.00
9899;BME280;4988;49.238;6.698;2023-06-22T03:44:15;99022.59;;;20.87;100.00
9899;BME280;4988;49.238;6.698;2023-06-22T03:46:40;99017.59;;;20.83;100.00
9899;BME280;4988;49.238;6.698;2023-06-22T03:49:05;99018.59;;;20.82;100.00
9899;BME280;4988;49.238;6.698;2023-06-22T03:51:31;99031.25;;;20.81;100.00
9899;BME280;4988;49.238;6.698;2023-06-22T03:53:56;99028.28;;;20.84;100.00
9899;BME280;4988;49.238;6.698;2023-06-22T03:56:22;99024.13;;;20.80;100.00
9899;BME280;4988;49.238;6.698;2023-06-22T03:58:47;99020.16;;;20.75;100.00
9899;BME280;4988;49.238;6.698;2023-06-22T04:01:12;99016.84;;;20.71;100.00
9899;BME280;4988;49.238;6.698;2023-06-22T04:03:38;99025.22;;;20.68;100.00
9899;BME280;4988;49.238;6.698;2023-06-22T04:06:04;99026.22;;;20.67;100.00
9899;BME280;4988;49.238;6.698;2023-06-22T04:08:29;99029.41;;;20.72;100.00
9899;BME280;4988;49.238;6.698;2023-06-22T04:10:55;99019.22;;;20.64;100.00
9899;BME280;4988;49.238;6.698;2023-06-22T04:13:20;99012.69;;;20.67;100.00
9899;BME280;4988;49.238;6.698;2023-06-22T04:15:46;99004.31;;;20.70;100.00
9899;BME280;4988;49.238;6.698;2023-06-22T04:18:11;98999.94;;;20.79;100.00
9899;BME280;4988;49.238;6.698;2023-06-22T04:20:37;98988.34;;;20.67;100.00
9899;BME280;4988;49.238;6.698;2023-06-22T04:23:02;98991.25;;;20.75;100.00
9899;BME280;4988;49.238;6.698;2023-06-22T04:25:27;98986.16;;;20.82;100.00
9899;BME280;4988;49.238;6.698;2023-06-22T04:27:53;98986.69;;;20.85;100.00
9899;BME280;4988;49.238;6.698;2023-06-22T04:30:18;98996.94;;;20.92;100.00
9899;BME280;4988;49.238;6.698;2023-06-22T04:32:44;99001.53;;;20.91;100.00
9899;BME280;4988;49.238;6.698;2023-06-22T04:35:10;99007.66;;;20.93;100.00
9899;BME280;4988;49.238;6.698;2023-06-22T04:37:35;99002.81;;;20.97;100.00
9899;BME280;4988;49.238;6.698;2023-06-22T04:40:00;98994.69;;;20.97;100.00
9899;BME280;4988;49.238;6.698;2023-06-22T04:42:26;98993.72;;;20.98;100.00
9899;BME280;4988;49.238;6.698;2023-06-22T04:44:52;99001.53;;;21.01;100.00
9899;BME280;4988;49.238;6.698;2023-06-22T04:47:17;99003.50;;;20.99;100.00
9899;BME280;4988;49.238;6.698;2023-06-22T04:49:42;99005.53;;;21.07;100.00
9899;BME280;4988;49.238;6.698;2023-06-22T04:52:10;99007.53;;;21.14;100.00
9899;BME280;4988;49.238;6.698;2023-06-22T04:54:37;99014.34;;;21.18;100.00
9899;BME280;4988;49.238;6.698;2023-06-22T04:57:04;99007.94;;;21.29;100.00
9899;BME280;4988;49.238;6.698;2023-06-22T04:59:31;99012.38;;;21.40;100.00
9899;BME280;4988;49.238;6.698;2023-06-22T05:01:57;98999.56;;;21.42;100.00
9899;BME280;4988;49.238;6.698;2023-06-22T05:04:23;98993.81;;;21.55;100.00
9899;BME280;4988;49.238;6.698;2023-06-22T05:06:50;98995.97;;;21.61;100.00
9899;BME280;4988;49.238;6.698;2023-06-22T05:09:15;98999.53;;;21.62;100.00
9899;BME280;4988;49.238;6.698;2023-06-22T05:11:41;98999.53;;;21.62;100.00
9899;BME280;4988;49.238;6.698;2023-06-22T05:14:06;98998.94;;;21.68;100.00
9899;BME280;4988;49.238;6.698;2023-06-22T05:16:32;98989.53;;;21.72;100.00
9899;BME280;4988;49.238;6.698;2023-06-22T05:18:58;98993.81;;;21.75;100.00
9899;BME280;4988;49.238;6.698;2023-06-22T05:21:25;98987.56;;;21.74;100.00
9899;BME280;4988;49.238;6.698;2023-06-22T05:23:51;98990.94;;;21.76;100.00
9899;BME280;4988;49.238;6.698;2023-06-22T05:26:17;98991.34;;;21.81;100.00
9899;BME280;4988;49.238;6.698;2023-06-22T05:28:43;98986.50;;;21.85;100.00
9899;BME280;4988;49.238;6.698;2023-06-22T05:31:12;98977.22;;;21.88;100.00
9899;BME280;4988;49.238;6.698;2023-06-22T05:33:37;98972.78;;;21.96;100.00
9899;BME280;4988;49.238;6.698;2023-06-22T05:36:03;98969.03;;;22.07;100.00
9899;BME280;4988;49.238;6.698;2023-06-22T05:38:28;98971.09;;;22.23;100.00
9899;BME280;4988;49.238;6.698;2023-06-22T05:40:53;98972.03;;;22.32;100.00
9899;BME280;4988;49.238;6.698;2023-06-22T05:43:19;98967.31;;;22.44;100.00
9899;BME280;4988;49.238;6.698;2023-06-22T05:45:44;98967.25;;;22.54;100.00
9899;BME280;4988;49.238;6.698;2023-06-22T05:48:09;98956.75;;;22.69;99.11
9899;BME280;4988;49.238;6.698;2023-06-22T05:50:36;98953.25;;;22.76;98.68
9899;BME280;4988;49.238;6.698;2023-06-22T05:53:02;98952.34;;;22.86;98.07
9899;BME280;4988;49.238;6.698;2023-06-22T05:55:27;98946.38;;;23.00;96.37
9899;BME280;4988;49.238;6.698;2023-06-22T05:57:52;98953.94;;;23.14;95.85
9899;BME280;4988;49.238;6.698;2023-06-22T06:00:18;98956.47;;;23.26;96.17
9899;BME280;4988;49.238;6.698;2023-06-22T06:02:44;98968.00;;;23.46;94.79
9899;BME280;4988;49.238;6.698;2023-06-22T06:05:12;98969.06;;;23.53;93.06
9899;BME280;4988;49.238;6.698;2023-06-22T06:07:44;98978.13;;;23.62;93.41
9899;BME280;4988;49.238;6.698;2023-06-22T06:10:10;98971.88;;;23.61;91.61
9899;BME280;4988;49.238;6.698;2023-06-22T06:12:35;98982.56;;;23.63;92.18
9899;BME280;4988;49.238;6.698;2023-06-22T06:15:01;98976.13;;;23.64;90.95
9899;BME280;4988;49.238;6.698;2023-06-22T06:17:26;98972.06;;;23.68;91.21
9899;BME280;4988;49.238;6.698;2023-06-22T06:19:52;98970.25;;;23.77;91.70
9899;BME280;4988;49.238;6.698;2023-06-22T06:22:17;98974.97;;;23.93;90.63
9899;BME280;4988;49.238;6.698;2023-06-22T06:24:44;98968.03;;;23.99;90.46
9899;BME280;4988;49.238;6.698;2023-06-22T06:27:09;98965.56;;;24.14;90.93
9899;BME280;4988;49.238;6.698;2023-06-22T06:29:34;98971.72;;;24.24;88.99
9899;BME280;4988;49.238;6.698;2023-06-22T06:32:00;98962.38;;;24.27;87.59
9899;BME280;4988;49.238;6.698;2023-06-22T06:34:25;98954.88;;;24.20;87.78
9899;BME280;4988;49.238;6.698;2023-06-22T06:36:50;98958.78;;;24.18;89.07
9899;BME280;4988;49.238;6.698;2023-06-22T06:39:16;98952.53;;;24.25;89.98
9899;BME280;4988;49.238;6.698;2023-06-22T06:41:41;98946.09;;;24.35;87.29
9899;BME280;4988;49.238;6.698;2023-06-22T06:44:06;98936.56;;;24.39;87.14
9899;BME280;4988;49.238;6.698;2023-06-22T06:46:32;98939.53;;;24.54;87.78
9899;BME280;4988;49.238;6.698;2023-06-22T06:48:57;98935.09;;;24.61;84.25
9899;BME280;4988;49.238;6.698;2023-06-22T06:51:22;98942.34;;;24.79;83.85
9899;BME280;4988;49.238;6.698;2023-06-22T06:53:48;98942.72;;;24.92;82.65
9899;BME280;4988;49.238;6.698;2023-06-22T06:56:13;98950.88;;;25.00;82.97
9899;BME280;4988;49.238;6.698;2023-06-22T06:58:41;98952.09;;;25.06;81.89
9899;BME280;4988;49.238;6.698;2023-06-22T07:01:07;98937.09;;;25.10;80.33
9899;BME280;4988;49.238;6.698;2023-06-22T07:03:33;98935.56;;;25.08;81.53
9899;BME280;4988;49.238;6.698;2023-06-22T07:05:58;98938.97;;;25.10;80.55
9899;BME280;4988;49.238;6.698;2023-06-22T07:08:24;98931.81;;;25.09;79.28
9899;BME280;4988;49.238;6.698;2023-06-22T07:10:49;98915.13;;;25.03;79.55
9899;BME280;4988;49.238;6.698;2023-06-22T07:13:14;98924.31;;;25.02;79.22
9899;BME280;4988;49.238;6.698;2023-06-22T07:15:40;98933.34;;;25.11;79.76
9899;BME280;4988;49.238;6.698;2023-06-22T07:18:05;98922.44;;;25.28;81.50
9899;BME280;4988;49.238;6.698;2023-06-22T07:20:30;98917.53;;;25.40;77.52
9899;BME280;4988;49.238;6.698;2023-06-22T07:22:56;98922.28;;;25.46;77.05
9899;BME280;4988;49.238;6.698;2023-06-22T07:25:21;98915.81;;;25.47;75.87
9899;BME280;4988;49.238;6.698;2023-06-22T07:30:22;98911.38;;;25.62;75.42
9899;BME280;4988;49.238;6.698;2023-06-22T07:32:48;98888.88;;;25.60;76.55
9899;BME280;4988;49.238;6.698;2023-06-22T07:35:13;98874.59;;;25.50;75.41
9899;BME280;4988;49.238;6.698;2023-06-22T07:37:41;98878.53;;;25.39;75.28
9899;BME280;4988;49.238;6.698;2023-06-22T07:40:07;98886.88;;;25.29;75.15
9899;BME280;4988;49.238;6.698;2023-06-22T07:42:33;98886.53;;;25.24;75.34
9899;BME280;4988;49.238;6.698;2023-06-22T07:44:59;98888.75;;;25.20;76.27
9899;BME280;4988;49.238;6.698;2023-06-22T07:47:25;98891.28;;;25.22;76.90
9899;BME280;4988;49.238;6.698;2023-06-22T07:49:53;98870.38;;;25.14;75.20
9899;BME280;4988;49.238;6.698;2023-06-22T07:52:20;98868.66;;;25.13;76.52
9899;BME280;4988;49.238;6.698;2023-06-22T07:54:46;98870.53;;;25.13;76.93
9899;BME280;4988;49.238;6.698;2023-06-22T07:57:11;98867.13;;;25.11;77.35
9899;BME280;4988;49.238;6.698;2023-06-22T07:59:37;98872.41;;;25.04;77.64
9899;BME280;4988;49.238;6.698;2023-06-22T08:02:02;98867.81;;;25.04;79.37
9899;BME280;4988;49.238;6.698;2023-06-22T08:04:28;98843.44;;;25.03;78.92
9899;BME280;4988;49.238;6.698;2023-06-22T08:06:54;98848.41;;;25.16;80.18
9899;BME280;4988;49.238;6.698;2023-06-22T08:09:19;98836.09;;;25.45;78.65
9899;BME280;4988;49.238;6.698;2023-06-22T08:11:44;98839.13;;;25.58;76.83
9899;BME280;4988;49.238;6.698;2023-06-22T08:14:10;98837.50;;;25.80;77.29
9899;BME280;4988;49.238;6.698;2023-06-22T08:16:35;98831.84;;;25.90;76.43
9899;BME280;4988;49.238;6.698;2023-06-22T08:19:00;98839.28;;;26.05;76.48
9899;BME280;4988;49.238;6.698;2023-06-22T08:21:26;98841.31;;;26.19;75.57
9899;BME280;4988;49.238;6.698;2023-06-22T08:23:51;98845.31;;;26.31;74.13
9899;BME280;4988;49.238;6.698;2023-06-22T08:26:16;98834.44;;;26.23;73.17
9899;BME280;4988;49.238;6.698;2023-06-22T08:28:42;98833.47;;;26.16;74.28
9899;BME280;4988;49.238;6.698;2023-06-22T08:31:07;98836.91;;;26.10;73.99
9899;BME280;4988;49.238;6.698;2023-06-22T08:33:33;98845.59;;;26.05;74.17
9899;BME280;4988;49.238;6.698;2023-06-22T08:35:59;98841.53;;;26.01;75.46
9899;BME280;4988;49.238;6.698;2023-06-22T08:38:25;98853.66;;;25.90;75.76
9899;BME280;4988;49.238;6.698;2023-06-22T08:40:50;98866.50;;;25.81;76.64
9899;BME280;4988;49.238;6.698;2023-06-22T08:43:16;98869.75;;;25.77;77.16
9899;BME280;4988;49.238;6.698;2023-06-22T08:45:41;98868.91;;;25.76;78.09
9899;BME280;4988;49.238;6.698;2023-06-22T08:48:06;98879.09;;;25.82;78.22
9899;BME280;4988;49.238;6.698;2023-06-22T08:50:31;98876.38;;;25.82;78.33
9899;BME280;4988;49.238;6.698;2023-06-22T08:52:57;98877.19;;;25.91;77.72
9899;BME280;4988;49.238;6.698;2023-06-22T08:55:22;98873.06;;;26.04;76.72
9899;BME280;4988;49.238;6.698;2023-06-22T08:57:47;98864.19;;;26.10;77.33
9899;BME280;4988;49.238;6.698;2023-06-22T09:00:13;98860.56;;;26.17;77.03
9899;BME280;4988;49.238;6.698;2023-06-22T09:02:46;98877.38;;;26.29;76.34
9899;BME280;4988;49.238;6.698;2023-06-22T09:05:12;98868.88;;;26.32;75.75
9899;BME280;4988;49.238;6.698;2023-06-22T09:07:37;98858.41;;;26.36;75.81
9899;BME280;4988;49.238;6.698;2023-06-22T09:10:03;98844.38;;;26.47;75.86
9899;BME280;4988;49.238;6.698;2023-06-22T09:12:32;98838.28;;;26.60;74.04
9899;BME280;4988;49.238;6.698;2023-06-22T09:14:59;98820.44;;;26.73;73.80
9899;BME280;4988;49.238;6.698;2023-06-22T09:17:25;98829.19;;;26.91;73.83
9899;BME280;4988;49.238;6.698;2023-06-22T09:19:51;98833.03;;;27.05;72.67
9899;BME280;4988;49.238;6.698;2023-06-22T09:22:16;98838.03;;;27.17;71.14
9899;BME280;4988;49.238;6.698;2023-06-22T09:24:42;98845.78;;;27.28;69.99
9899;BME280;4988;49.238;6.698;2023-06-22T09:27:07;98859.28;;;27.44;67.43
9899;BME280;4988;49.238;6.698;2023-06-22T09:29:32;98873.16;;;27.43;66.38
9899;BME280;4988;49.238;6.698;2023-06-22T09:31:59;98865.53;;;27.53;67.12
9899;BME280;4988;49.238;6.698;2023-06-22T09:34:25;98859.03;;;27.69;66.45
9899;BME280;4988;49.238;6.698;2023-06-22T09:36:51;98846.47;;;27.75;66.68
9899;BME280;4988;49.238;6.698;2023-06-22T09:39:18;98841.75;;;27.84;65.34
9899;BME280;4988;49.238;6.698;2023-06-22T09:41:43;98834.19;;;28.01;67.49
9899;BME280;4988;49.238;6.698;2023-06-22T09:44:09;98828.25;;;28.12;64.74
9899;BME280;4988;49.238;6.698;2023-06-22T09:46:34;98825.56;;;28.34;64.64
9899;BME280;4988;49.238;6.698;2023-06-22T09:48:59;98830.00;;;28.56;63.23
9899;BME280;4988;49.238;6.698;2023-06-22T09:51:25;98819.31;;;28.62;62.17
9899;BME280;4988;49.238;6.698;2023-06-22T09:53:51;98814.69;;;28.62;62.94
9899;BME280;4988;49.238;6.698;2023-06-22T09:56:17;98803.94;;;28.61;62.48
9899;BME280;4988;49.238;6.698;2023-06-22T09:58:43;98810.00;;;28.56;64.14
9899;BME280;4988;49.238;6.698;2023-06-22T10:01:09;98799.41;;;28.53;62.44
9899;BME280;4988;49.238;6.698;2023-06-22T10:03:35;98805.03;;;28.66;61.86
9899;BME280;4988;49.238;6.698;2023-06-22T10:06:00;98801.25;;;28.89;61.76
9899;BME280;4988;49.238;6.698;2023-06-22T10:08:26;98797.66;;;29.17;62.51
9899;BME280;4988;49.238;6.698;2023-06-22T10:10:51;98785.41;;;29.41;60.19
9899;BME280;4988;49.238;6.698;2023-06-22T10:13:17;98797.56;;;29.60;60.35
9899;BME280;4988;49.238;6.698;2023-06-22T10:15:44;98795.50;;;29.69;60.46
9899;BME280;4988;49.238;6.698;2023-06-22T10:18:14;98793.81;;;29.75;57.77
9899;BME280;4988;49.238;6.698;2023-06-22T10:20:40;98789.41;;;29.80;59.15
9899;BME280;4988;49.238;6.698;2023-06-22T10:23:05;98790.75;;;29.91;58.52
9899;BME280;4988;49.238;6.698;2023-06-22T10:25:30;98788.25;;;30.03;58.19
9899;BME280;4988;49.238;6.698;2023-06-22T10:27:56;98783.19;;;30.07;56.57
9899;BME280;4988;49.238;6.698;2023-06-22T10:30:22;98785.94;;;30.00;56.41
9899;BME280;4988;49.238;6.698;2023-06-22T10:32:48;98778.97;;;30.04;57.03
9899;BME280;4988;49.238;6.698;2023-06-22T10:35:16;98774.78;;;30.08;56.59
9899;BME280;4988;49.238;6.698;2023-06-22T10:37:45;98769.50;;;30.13;57.16
9899;BME280;4988;49.238;6.698;2023-06-22T10:40:15;98768.69;;;30.20;56.32
9899;BME280;4988;49.238;6.698;2023-06-22T10:42:41;98763.81;;;30.22;55.97
9899;BME280;4988;49.238;6.698;2023-06-22T10:45:08;98755.59;;;30.28;56.30
9899;BME280;4988;49.238;6.698;2023-06-22T10:47:34;98758.16;;;30.37;56.80
9899;BME280;4988;49.238;6.698;2023-06-22T10:50:00;98759.41;;;30.47;56.78
9899;BME280;4988;49.238;6.698;2023-06-22T10:52:25;98762.22;;;30.61;55.73
9899;BME280;4988;49.238;6.698;2023-06-22T10:54:51;98762.22;;;30.68;56.49
9899;BME280;4988;49.238;6.698;2023-06-22T10:57:17;98755.44;;;30.77;53.91
9899;BME280;4988;49.238;6.698;2023-06-22T10:59:43;98753.75;;;30.83;55.41
9899;BME280;4988;49.238;6.698;2023-06-22T11:02:08;98753.75;;;30.96;55.64
9899;BME280;4988;49.238;6.698;2023-06-22T11:04:33;98751.63;;;31.11;54.19
9899;BME280;4988;49.238;6.698;2023-06-22T11:06:59;98745.50;;;31.23;53.38
9899;BME280;4988;49.238;6.698;2023-06-22T11:09:24;98748.88;;;31.32;52.90
9899;BME280;4988;49.238;6.698;2023-06-22T11:11:51;98739.53;;;31.39;52.56
9899;BME280;4988;49.238;6.698;2023-06-22T11:14:20;98735.50;;;31.42;53.08
9899;BME280;4988;49.238;6.698;2023-06-22T11:16:46;98734.88;;;31.33;52.74
9899;BME280;4988;49.238;6.698;2023-06-22T11:19:12;98735.38;;;31.17;51.89
9899;BME280;4988;49.238;6.698;2023-06-22T11:21:37;98733.66;;;31.16;52.72
9899;BME280;4988;49.238;6.698;2023-06-22T11:24:03;98740.19;;;31.21;52.51
9899;BME280;4988;49.238;6.698;2023-06-22T11:26:28;98744.84;;;31.27;52.14
9899;BME280;4988;49.238;6.698;2023-06-22T11:28:54;98738.31;;;31.22;51.62
9899;BME280;4988;49.238;6.698;2023-06-22T11:31:19;98738.91;;;31.24;51.43
9899;BME280;4988;49.238;6.698;2023-06-22T11:33:44;98738.94;;;31.17;51.24
9899;BME280;4988;49.238;6.698;2023-06-22T11:36:11;98734.09;;;31.12;51.91
9899;BME280;4988;49.238;6.698;2023-06-22T11:38:37;98739.38;;;31.07;52.06
9899;BME280;4988;49.238;6.698;2023-06-22T11:41:05;98729.00;;;31.23;53.82
9899;BME280;4988;49.238;6.698;2023-06-22T11:43:30;98722.63;;;31.29;51.25
9899;BME280;4988;49.238;6.698;2023-06-22T11:45:57;98734.44;;;31.36;49.96
9899;BME280;4988;49.238;6.698;2023-06-22T11:48:24;98712.84;;;31.40;47.80
9899;BME280;4988;49.238;6.698;2023-06-22T11:50:49;98713.44;;;31.49;47.70
9899;BME280;4988;49.238;6.698;2023-06-22T11:53:14;98694.69;;;31.39;48.95
9899;BME280;4988;49.238;6.698;2023-06-22T11:55:42;98704.22;;;31.30;46.63
9899;BME280;4988;49.238;6.698;2023-06-22T11:58:07;98697.00;;;31.35;46.93
9899;BME280;4988;49.238;6.698;2023-06-22T12:00:33;98703.56;;;31.34;46.85
9899;BME280;4988;49.238;6.698;2023-06-22T12:02:59;98692.19;;;31.17;48.33
9899;BME280;4988;49.238;6.698;2023-06-22T12:05:24;98705.53;;;31.14;48.70
9899;BME280;4988;49.238;6.698;2023-06-22T12:07:50;98704.47;;;31.15;48.90
9899;BME280;4988;49.238;6.698;2023-06-22T12:10:15;98716.34;;;31.08;48.57
9899;BME280;4988;49.238;6.698;2023-06-22T12:12:41;98707.88;;;31.10;48.59
9899;BME280;4988;49.238;6.698;2023-06-22T12:15:07;98699.63;;;31.10;49.07
9899;BME280;4988;49.238;6.698;2023-06-22T12:17:34;98691.38;;;31.10;49.25
9899;BME280;4988;49.238;6.698;2023-06-22T12:19:59;98703.59;;;31.21;48.41
9899;BME280;4988;49.238;6.698;2023-06-22T12:22:24;98693.59;;;31.40;46.88
9899;BME280;4988;49.238;6.698;2023-06-22T12:24:50;98687.22;;;31.46;45.54
9899;BME280;4988;49.238;6.698;2023-06-22T12:27:16;98690.38;;;31.50;46.08
9899;BME280;4988;49.238;6.698;2023-06-22T12:29:43;98689.28;;;31.64;45.90
9899;BME280;4988;49.238;6.698;2023-06-22T12:32:08;98685.75;;;31.89;45.55
9899;BME280;4988;49.238;6.698;2023-06-22T12:34:34;98664.63;;;31.83;44.96
9899;BME280;4988;49.238;6.698;2023-06-22T12:36:59;98681.13;;;31.89;45.27
9899;BME280;4988;49.238;6.698;2023-06-22T12:39:24;98668.50;;;31.75;43.15
9899;BME280;4988;49.238;6.698;2023-06-22T12:41:49;98678.72;;;31.54;43.53
9899;BME280;4988;49.238;6.698;2023-06-22T12:44:15;98675.13;;;31.54;42.93
9899;BME280;4988;49.238;6.698;2023-06-22T12:46:40;98694.13;;;31.62;43.39
9899;BME280;4988;49.238;6.698;2023-06-22T12:49:05;98675.94;;;31.68;43.47
9899;BME280;4988;49.238;6.698;2023-06-22T12:51:31;98665.88;;;31.87;41.80
9899;BME280;4988;49.238;6.698;2023-06-22T12:53:56;98657.34;;;31.95;42.38
9899;BME280;4988;49.238;6.698;2023-06-22T12:56:22;98660.28;;;32.00;42.18
9899;BME280;4988;49.238;6.698;2023-06-22T12:58:47;98650.44;;;31.86;42.58
9899;BME280;4988;49.238;6.698;2023-06-22T13:01:13;98668.59;;;31.48;43.32
9899;BME280;4988;49.238;6.698;2023-06-22T13:03:38;98666.94;;;31.40;43.85
9899;BME280;4988;49.238;6.698;2023-06-22T13:06:04;98679.50;;;31.03;44.42
9899;BME280;4988;49.238;6.698;2023-06-22T13:08:29;98685.47;;;30.79;44.19
9899;BME280;4988;49.238;6.698;2023-06-22T13:10:55;98697.28;;;30.26;45.85
9899;BME280;4988;49.238;6.698;2023-06-22T13:13:25;98695.56;;;29.98;46.93
9899;BME280;4988;49.238;6.698;2023-06-22T13:15:52;98708.25;;;29.51;48.81
9899;BME280;4988;49.238;6.698;2023-06-22T13:18:19;98712.31;;;29.27;48.60
9899;BME280;4988;49.238;6.698;2023-06-22T13:20:44;98711.25;;;29.28;49.27
9899;BME280;4988;49.238;6.698;2023-06-22T13:23:10;98708.84;;;28.76;50.30